Margaret — WDC3267 — position and weather

sailwx.info

Track history (hours):
 
Tides and Currents Weather Stations Pressure Air Temp Water Temp Dewpoint Dewpoint Depression Visibility Wind Speed Wind Dir Waves Ship Positions

Margaret

Owner: Cooper Marine & Timberlands Corporation, Mobile, AL. More information available from US FCC via Universal Licensing System and Coast Guard Vessel Documentation Center.

Last reported at 2016-May-27 07:04 UTC. Time now 2016-May-31 04:03 UTC.
Position N 29°57' W 090°10'.

Length 22 m.

Type: Fishing. MMSI: 367004940.

Date/timePositionNaut miles runAvg speedWind from/ knotsBaromVisibWave heightAir tempDewpointWater temp
2016-May-27 07:04N 29°57' W 090°10'2 3.3
2016-May-27 06:33N 29°56' W 090°08'4 4.2
2016-May-27 05:33N 29°56' W 090°04'5 4.5
2016-May-27 04:33N 29°55' W 089°58'1 0.5
2016-May-27 03:32N 29°55' W 089°58'0 0.0
2016-May-27 02:33N 29°55' W 089°58'0 0.0
2016-May-27 01:32N 29°55' W 089°58'1 1.4
2016-May-27 00:33N 29°54' W 089°60'5 4.6
2016-May-26 23:33N 29°50' W 090°03'0 0.0
2016-May-26 22:33N 29°50' W 090°03'0 0.0
2016-May-26 21:33N 29°50' W 090°03'3 2.6
2016-May-26 20:33N 29°52' W 090°04'2 2.0
2016-May-26 19:33N 29°54' W 090°05'0 0.0
2016-May-26 18:33N 29°54' W 090°05'0 0.0
2016-May-24 16:16N 29°54' W 090°05'2 2.9
2016-May-24 15:33N 29°52' W 090°04'3 2.8
2016-May-24 14:32N 29°51' W 090°01'5 4.5
2016-May-24 13:32N 29°55' W 089°58'0 0.1
2016-May-24 12:05N 29°55' W 089°58'4 7.2
2016-May-24 11:34N 29°57' W 090°02'6 5.6
2016-May-24 10:32N 29°57' W 090°08'  
Track history (hours):
 
Tides and Currents Weather Stations Pressure Air Temp Water Temp Dewpoint Dewpoint Depression Visibility Wind Speed Wind Dir Waves Ship Positions

Margaret

Owner: Cooper Marine & Timberlands Corporation, Mobile, AL. More information available from US FCC via Universal Licensing System and Coast Guard Vessel Documentation Center.

Last reported at 2016-May-27 07:04 UTC. Time now 2016-May-31 04:03 UTC.
Position N 29°57' W 090°10'.

Length 22 m.

Type: Fishing. MMSI: 367004940.

Date/timePositionNaut miles runAvg speedWind from/ knotsBaromVisibWave heightAir tempDewpointWater temp
2016-May-27 07:04N 29°57' W 090°10'2 3.3
2016-May-27 06:33N 29°56' W 090°08'4 4.2
2016-May-27 05:33N 29°56' W 090°04'5 4.5
2016-May-27 04:33N 29°55' W 089°58'1 0.5
2016-May-27 03:32N 29°55' W 089°58'0 0.0
2016-May-27 02:33N 29°55' W 089°58'0 0.0
2016-May-27 01:32N 29°55' W 089°58'1 1.4
2016-May-27 00:33N 29°54' W 089°60'5 4.6
2016-May-26 23:33N 29°50' W 090°03'0 0.0
2016-May-26 22:33N 29°50' W 090°03'0 0.0
2016-May-26 21:33N 29°50' W 090°03'3 2.6
2016-May-26 20:33N 29°52' W 090°04'2 2.0
2016-May-26 19:33N 29°54' W 090°05'0 0.0
2016-May-26 18:33N 29°54' W 090°05'0 0.0
2016-May-24 16:16N 29°54' W 090°05'2 2.9
2016-May-24 15:33N 29°52' W 090°04'3 2.8
2016-May-24 14:32N 29°51' W 090°01'5 4.5
2016-May-24 13:32N 29°55' W 089°58'0 0.1
2016-May-24 12:05N 29°55' W 089°58'4 7.2
2016-May-24 11:34N 29°57' W 090°02'6 5.6
2016-May-24 10:32N 29°57' W 090°08'  

Dump ship's entire track history